Time;durP1;ratioP1;P1;durP2;ratioP2;P2;SDS_P1;SDS_P2;PMS_P1;PMS_P2;Temp;Humidity;BMP_temperature;BMP_pressure;BME280_temperature;BME280_humidity;BME280_pressure;Samples;Min_cycle;Max_cycle;Signal;HPM_P1;HPM_P2
2022/04/11 00:02:27;;;;;;;16.73;11.65;;;;;;;3.67;83.77;101762.59;5348441;27;20160;-61
2022/04/11 00:04:58;;;;;;;21.40;12.70;;;;;;;3.69;83.11;101754.66;5352029;27;20497;-61
2022/04/11 00:07:30;;;;;;;20.75;11.70;;;;;;;3.69;83.33;101755.50;5342377;27;20544;-61
2022/04/11 00:10:01;;;;;;;23.33;13.13;;;;;;;3.65;82.63;101753.03;5347900;27;21307;-61
2022/04/11 00:12:35;;;;;;;23.83;13.30;;;;;;;3.63;82.42;101755.72;5356123;27;20442;-61
2022/04/11 00:15:07;;;;;;;22.50;13.02;;;;;;;3.62;82.52;101742.56;5352400;27;20054;-61
2022/04/11 00:17:39;;;;;;;30.73;13.68;;;;;;;3.65;84.51;101745.13;5342966;27;20019;-61
2022/04/11 00:20:11;;;;;;;27.20;13.85;;;;;;;3.66;83.41;101744.19;5350535;27;20023;-61
2022/04/11 00:22:42;;;;;;;23.35;13.32;;;;;;;3.66;82.86;101746.81;5344923;27;20066;-61
2022/04/11 00:25:13;;;;;;;32.22;13.90;;;;;;;3.61;82.60;101746.97;5352178;27;20054;-62
2022/04/11 00:27:44;;;;;;;27.15;13.77;;;;;;;3.62;82.98;101748.69;5347500;27;20050;-62
2022/04/11 00:30:16;;;;;;;31.75;14.75;;;;;;;3.64;82.78;101740.72;5348186;27;20018;-62
2022/04/11 00:32:47;;;;;;;38.45;14.00;;;;;;;3.65;83.47;101737.19;5350288;27;20097;-62
2022/04/11 00:35:18;;;;;;;32.75;14.18;;;;;;;3.62;83.11;101735.50;5353344;27;20401;-62
2022/04/11 00:37:50;;;;;;;28.73;13.63;;;;;;;3.62;84.10;101726.72;5348573;27;20034;-62
2022/04/11 00:40:21;;;;;;;30.50;14.68;;;;;;;3.71;84.17;101726.44;5350491;27;20032;-62
2022/04/11 00:42:52;;;;;;;27.20;14.02;;;;;;;3.66;84.52;101717.78;5351716;27;20033;-63
2022/04/11 00:45:24;;;;;;;25.42;14.25;;;;;;;3.68;83.13;101719.47;5348929;27;20159;-62
2022/04/11 00:47:55;;;;;;;20.90;12.68;;;;;;;3.66;83.39;101713.41;5352515;27;20433;-62
2022/04/11 00:50:28;;;;;;;21.52;12.50;;;;;;;3.69;83.80;101707.16;5351672;27;20022;-62
2022/04/11 00:52:59;;;;;;;22.98;13.60;;;;;;;3.65;83.45;101706.38;5349648;27;21485;-62
2022/04/11 00:55:30;;;;;;;24.77;13.23;;;;;;;3.63;83.46;101702.09;5350472;27;20034;-62
2022/04/11 00:58:02;;;;;;;22.55;12.55;;;;;;;3.68;84.45;101706.28;5349946;27;20047;-62
2022/04/11 01:00:34;;;;;;;22.10;12.73;;;;;;;3.73;86.03;101696.41;5346077;27;20023;-62
2022/04/11 01:03:05;;;;;;;20.60;12.57;;;;;;;3.71;85.54;101700.88;5328622;27;20411;-62
2022/04/11 01:05:37;;;;;;;24.75;13.02;;;;;;;3.68;84.52;101703.66;5347563;27;20022;-62
2022/04/11 01:08:10;;;;;;;24.23;12.75;;;;;;;3.63;84.02;101702.09;5347331;27;20492;-62
2022/04/11 01:10:41;;;;;;;23.90;13.95;;;;;;;3.65;85.21;101701.09;5351205;27;20523;-62
2022/04/11 01:13:13;;;;;;;21.30;13.40;;;;;;;3.63;84.91;101695.03;5351245;27;20114;-62
2022/04/11 01:15:54;;;;;;;22.13;12.95;;;;;;;3.76;84.71;101699.88;5351478;27;20035;-62
2022/04/11 01:18:25;;;;;;;24.23;13.13;;;;;;;3.64;84.64;101702.00;5352173;27;20023;-62
2022/04/11 01:20:57;;;;;;;23.30;13.65;;;;;;;3.65;84.38;101694.97;5353367;27;20071;-62
2022/04/11 01:23:28;;;;;;;21.30;13.48;;;;;;;3.64;84.38;101686.16;5352435;27;20133;-62
2022/04/11 01:25:59;;;;;;;19.90;12.73;;;;;;;3.64;83.75;101688.81;5354254;27;20022;-62
2022/04/11 01:28:31;;;;;;;21.33;12.82;;;;;;;3.59;84.45;101690.75;5355726;27;20045;-62
2022/04/11 01:31:03;;;;;;;19.80;13.13;;;;;;;3.69;84.45;101699.22;5350265;27;20106;-62
2022/04/11 01:33:34;;;;;;;20.42;12.85;;;;;;;3.65;84.51;101697.59;5351188;27;20027;-62
2022/04/11 01:36:05;;;;;;;21.52;13.52;;;;;;;3.70;85.38;101693.91;5352508;27;20038;-62
2022/04/11 01:38:37;;;;;;;19.63;12.93;;;;;;;3.59;84.52;101703.97;5350301;27;20083;-62
2022/04/11 01:41:08;;;;;;;19.23;13.23;;;;;;;3.59;83.75;101697.81;5350987;27;21240;-62
2022/04/11 01:43:39;;;;;;;20.20;13.60;;;;;;;3.58;85.62;101701.34;5351982;27;20485;-62
2022/04/11 01:46:11;;;;;;;22.10;13.07;;;;;;;3.56;84.73;101696.13;5351768;27;20426;-62
2022/04/11 01:48:42;;;;;;;21.30;13.73;;;;;;;3.58;84.63;101694.31;5350114;27;20525;-62
2022/04/11 01:51:13;;;;;;;19.33;13.43;;;;;;;3.63;87.19;101689.75;5352557;27;20033;-62
2022/04/11 01:53:44;;;;;;;20.20;13.63;;;;;;;3.61;86.19;101694.22;5359577;27;20031;-62
2022/04/11 01:56:16;;;;;;;19.00;13.40;;;;;;;3.57;85.37;101702.25;5353616;27;20041;-62
2022/04/11 01:58:47;;;;;;;19.13;13.35;;;;;;;3.54;86.33;101687.41;5351366;27;20084;-62
2022/04/11 02:01:18;;;;;;;21.88;13.75;;;;;;;3.50;85.22;101685.78;5353498;27;20352;-62
2022/04/11 02:03:49;;;;;;;18.67;13.23;;;;;;;3.58;85.74;101689.03;5348329;27;21243;-62
2022/04/11 02:06:21;;;;;;;17.23;12.75;;;;;;;3.49;85.19;101682.28;5351628;27;21206;-62
2022/04/11 02:08:52;;;;;;;20.55;13.55;;;;;;;3.47;85.96;101685.88;5348705;27;20034;-62
2022/04/11 02:11:23;;;;;;;17.17;13.32;;;;;;;3.45;85.85;101682.44;5353498;27;20082;-62
2022/04/11 02:13:54;;;;;;;17.45;13.30;;;;;;;3.39;85.02;101674.72;5359971;27;20141;-62
2022/04/11 02:16:26;;;;;;;17.95;12.98;;;;;;;3.36;84.84;101678.34;5356696;27;20034;-62
2022/04/11 02:18:57;;;;;;;15.60;12.23;;;;;;;3.37;85.74;101682.69;5356667;27;20029;-62
2022/04/11 02:21:28;;;;;;;16.85;13.00;;;;;;;3.33;85.52;101675.78;5346533;27;20506;-62
2022/04/11 02:24:00;;;;;;;17.38;13.07;;;;;;;3.33;87.59;101679.28;5349321;27;20030;-62
2022/04/11 02:26:31;;;;;;;16.23;12.98;;;;;;;3.23;86.44;101683.13;5355065;27;20030;-62
2022/04/11 02:29:02;;;;;;;17.50;13.10;;;;;;;3.17;85.71;101685.97;5359116;27;20091;-62
2022/04/11 02:31:33;;;;;;;19.00;12.52;;;;;;;3.13;86.45;101692.28;5349937;27;20030;-62
2022/04/11 02:34:05;;;;;;;17.88;12.50;;;;;;;3.10;85.91;101689.72;5353066;27;20033;-62
2022/04/11 02:36:36;;;;;;;17.75;13.40;;;;;;;3.14;87.49;101699.25;5333125;27;20050;-62
2022/04/11 02:39:07;;;;;;;18.05;13.10;;;;;;;3.05;86.81;101696.91;5352899;27;20034;-62
2022/04/11 02:41:39;;;;;;;18.27;13.00;;;;;;;2.96;86.64;101698.06;5350604;27;20027;-62
2022/04/11 02:44:10;;;;;;;18.58;13.18;;;;;;;2.90;86.60;101691.22;5330004;27;20023;-62
2022/04/11 02:46:44;;;;;;;18.45;12.88;;;;;;;2.93;87.02;101693.75;5350659;27;20030;-62
2022/04/11 02:49:15;;;;;;;18.05;12.00;;;;;;;2.87;86.76;101685.16;5357234;27;20026;-62
2022/04/11 02:51:46;;;;;;;17.48;13.07;;;;;;;2.75;87.43;101681.13;5349439;27;20033;-62
2022/04/11 02:54:18;;;;;;;17.00;12.93;;;;;;;2.78;87.33;101685.44;5352688;27;20027;-62
2022/04/11 02:56:49;;;;;;;16.67;13.77;;;;;;;2.71;87.57;101687.41;5351491;27;20019;-62
2022/04/11 02:59:20;;;;;;;16.92;13.05;;;;;;;2.69;87.61;101689.25;5350294;27;20163;-62
2022/04/11 03:01:51;;;;;;;15.98;12.75;;;;;;;2.60;87.99;101678.97;5347495;27;20026;-62
2022/04/11 03:04:23;;;;;;;16.10;12.68;;;;;;;2.64;88.21;101675.31;5348150;27;20057;-62
2022/04/11 03:06:55;;;;;;;15.60;12.98;;;;;;;2.53;89.46;101681.78;5348814;27;20405;-62
2022/04/11 03:09:26;;;;;;;16.23;13.20;;;;;;;2.52;89.63;101674.78;5349534;27;20035;-62
2022/04/11 03:11:58;;;;;;;20.35;13.48;;;;;;;2.42;89.11;101673.34;5348084;27;20839;-62
2022/04/11 03:14:30;;;;;;;20.27;13.20;;;;;;;2.40;88.76;101676.91;5351722;27;20047;-62
2022/04/11 03:17:01;;;;;;;16.45;13.13;;;;;;;2.43;89.53;101667.16;5352728;27;20508;-62
2022/04/11 03:19:32;;;;;;;18.48;13.80;;;;;;;2.36;90.54;101673.53;5350125;27;20121;-62
2022/04/11 03:22:04;;;;;;;16.98;13.65;;;;;;;2.31;90.02;101670.16;5352563;27;20081;-62
2022/04/11 03:24:35;;;;;;;16.70;13.88;;;;;;;2.26;90.41;101679.94;5350952;27;20038;-62
2022/04/11 03:27:06;;;;;;;17.73;13.48;;;;;;;2.18;89.61;101674.03;5348782;27;20111;-63
2022/04/11 03:29:38;;;;;;;17.75;13.52;;;;;;;2.22;90.35;101681.78;5351270;27;20027;-62
2022/04/11 03:32:09;;;;;;;19.13;14.10;;;;;;;2.16;89.98;101676.69;5351873;27;20606;-62
2022/04/11 03:34:40;;;;;;;18.75;14.48;;;;;;;2.09;89.49;101676.03;5352726;27;20056;-62
2022/04/11 03:37:12;;;;;;;18.15;13.77;;;;;;;2.08;90.37;101665.53;5350566;27;20084;-62
2022/04/11 03:39:43;;;;;;;18.17;13.63;;;;;;;2.06;90.21;101668.19;5349225;27;20464;-62
2022/04/11 03:42:15;;;;;;;22.98;14.98;;;;;;;2.08;92.14;101674.28;5357256;27;20038;-62
2022/04/11 03:44:46;;;;;;;19.55;14.52;;;;;;;1.96;90.99;101670.22;5355940;27;20064;-62
2022/04/11 03:47:17;;;;;;;17.48;14.02;;;;;;;1.92;91.38;101673.00;5345194;27;20155;-62
2022/04/11 03:49:48;;;;;;;18.27;14.32;;;;;;;1.93;91.31;101670.31;5351167;27;20049;-62
2022/04/11 03:52:20;;;;;;;21.77;15.02;;;;;;;1.90;91.29;101665.13;5356061;27;20034;-62
2022/04/11 03:54:51;;;;;;;18.25;14.75;;;;;;;1.95;92.88;101678.16;5350288;27;20041;-62
2022/04/11 03:57:22;;;;;;;19.38;13.35;;;;;;;1.84;91.89;101682.84;5348790;27;20031;-62
2022/04/11 03:59:53;;;;;;;18.48;14.02;;;;;;;1.79;91.48;101676.84;5348704;27;20027;-62
2022/04/11 04:02:25;;;;;;;18.55;14.02;;;;;;;1.79;91.52;101674.22;5350850;27;20038;-62
2022/04/11 04:04:56;;;;;;;18.40;14.60;;;;;;;1.70;91.46;101676.19;5346062;27;20467;-62
2022/04/11 04:07:27;;;;;;;18.65;15.35;;;;;;;1.69;91.47;101670.97;5340749;27;20117;-62
2022/04/11 04:09:58;;;;;;;19.23;14.70;;;;;;;1.67;92.11;101671.00;5339696;27;20022;-62
2022/04/11 04:12:30;;;;;;;19.90;14.57;;;;;;;1.70;92.08;101681.44;5345165;27;20654;-62
2022/04/11 04:15:02;;;;;;;21.73;15.35;;;;;;;1.64;92.09;101670.22;5340836;27;20801;-62
2022/04/11 04:17:33;;;;;;;17.98;14.70;;;;;;;1.60;92.29;101660.69;5341080;27;20035;-62
2022/04/11 04:20:05;;;;;;;19.05;14.70;;;;;;;1.65;92.97;101658.78;5342548;27;20033;-62
2022/04/11 04:22:36;;;;;;;19.25;14.77;;;;;;;1.52;93.05;101666.16;5343126;27;20114;-62
2022/04/11 04:25:08;;;;;;;18.08;14.88;;;;;;;1.58;94.05;101662.50;5339329;27;20030;-62
2022/04/11 04:27:39;;;;;;;19.73;15.57;;;;;;;1.62;94.96;101662.38;5355018;27;20046;-62
2022/04/11 04:30:10;;;;;;;18.98;15.43;;;;;;;1.56;94.75;101654.66;5337644;27;20820;-62
2022/04/11 04:32:42;;;;;;;20.77;15.18;;;;;;;1.48;94.09;101661.88;5349160;27;20539;-62
2022/04/11 04:35:13;;;;;;;20.27;16.88;;;;;;;1.53;94.38;101657.34;5343982;27;20034;-62
2022/04/11 04:37:44;;;;;;;20.35;15.60;;;;;;;1.43;93.68;101661.13;5339421;27;20049;-62
2022/04/11 04:40:16;;;;;;;19.17;14.95;;;;;;;1.41;93.60;101652.41;5339845;27;20034;-62
2022/04/11 04:42:47;;;;;;;18.65;15.05;;;;;;;1.36;93.71;101660.41;5346273;27;20035;-62
2022/04/11 04:45:19;;;;;;;20.63;15.43;;;;;;;1.35;93.70;101658.69;5327137;27;20038;-62
2022/04/11 04:47:51;;;;;;;22.88;15.98;;;;;;;1.31;93.94;101649.16;5345352;27;20538;-62
2022/04/11 04:50:22;;;;;;;18.98;14.95;;;;;;;1.28;94.33;101652.69;5345531;27;20027;-62
2022/04/11 04:52:53;;;;;;;18.92;15.18;;;;;;;1.26;94.25;101651.88;5345087;27;20035;-62
2022/04/11 04:55:25;;;;;;;19.55;14.65;;;;;;;1.27;94.17;101651.00;5345946;27;20404;-63
2022/04/11 04:57:56;;;;;;;19.17;15.05;;;;;;;1.22;94.74;101654.63;5347095;27;20118;-62
2022/04/11 05:00:28;;;;;;;20.25;15.27;;;;;;;1.24;94.46;101652.81;5352847;27;20038;-62
2022/04/11 05:02:59;;;;;;;21.75;15.90;;;;;;;1.20;95.17;101652.03;5353497;27;20044;-62
2022/04/11 05:05:30;;;;;;;17.80;14.50;;;;;;;1.21;94.83;101647.63;5351226;27;20031;-62
2022/04/11 05:08:02;;;;;;;24.88;15.20;;;;;;;1.22;95.27;101647.59;5352568;27;21449;-62
2022/04/11 05:10:33;;;;;;;19.05;14.88;;;;;;;1.24;94.93;101644.94;5359548;27;20482;-62
2022/04/11 05:13:04;;;;;;;20.10;15.80;;;;;;;1.23;95.36;101641.47;5346833;27;20035;-62
2022/04/11 05:15:36;;;;;;;21.40;15.27;;;;;;;1.29;95.83;101635.19;5355916;27;20089;-62
2022/04/11 05:18:07;;;;;;;19.92;15.48;;;;;;;1.25;96.40;101641.41;5354340;27;20448;-62
2022/04/11 05:20:39;;;;;;;22.83;16.10;;;;;;;1.22;96.12;101639.72;5353659;27;20093;-61
2022/04/11 05:23:10;;;;;;;20.00;15.23;;;;;;;1.34;96.82;101634.16;5357769;27;20055;-62
2022/04/11 05:25:42;;;;;;;22.73;15.52;;;;;;;1.28;96.56;101633.44;5357373;27;20060;-62
2022/04/11 05:28:13;;;;;;;19.73;14.57;;;;;;;1.31;96.12;101644.75;5352569;27;20031;-62
2022/04/11 05:30:44;;;;;;;23.17;15.15;;;;;;;1.38;96.06;101637.56;5352467;27;20120;-62
2022/04/11 05:33:16;;;;;;;19.10;15.60;;;;;;;1.40;96.36;101637.53;5359180;27;20037;-62
2022/04/11 05:35:47;;;;;;;22.13;14.60;;;;;;;1.41;96.14;101634.84;5360268;27;20418;-62
2022/04/11 05:38:19;;;;;;;24.95;15.25;;;;;;;1.48;96.54;101644.31;5350196;27;20117;-62
2022/04/11 05:40:50;;;;;;;21.83;15.57;;;;;;;1.49;96.41;101640.78;5347458;27;20038;-62
2022/04/11 05:43:22;;;;;;;22.50;15.10;;;;;;;1.53;96.28;101644.19;5351980;27;20412;-62
2022/04/11 05:45:53;;;;;;;18.30;14.73;;;;;;;1.64;96.55;101644.78;5354949;27;20484;-62
2022/04/11 05:48:25;;;;;;;18.98;15.07;;;;;;;1.64;96.08;101636.88;5357206;27;20027;-62
2022/04/11 05:50:57;;;;;;;19.27;14.05;;;;;;;1.75;95.64;101636.63;5355580;27;20380;-62
2022/04/11 05:53:28;;;;;;;23.88;15.50;;;;;;;1.82;95.43;101637.28;5352550;27;20605;-62
2022/04/11 05:55:59;;;;;;;23.45;14.57;;;;;;;1.88;95.45;101645.91;5353842;27;20177;-62
2022/04/11 05:58:30;;;;;;;19.83;14.63;;;;;;;1.96;95.00;101643.06;5356645;27;20034;-62
2022/04/11 06:01:02;;;;;;;24.88;15.07;;;;;;;2.08;94.32;101642.69;5348134;27;20030;-62
2022/04/11 06:03:36;;;;;;;21.42;14.10;;;;;;;2.18;93.88;101635.41;5359444;27;20556;-62
2022/04/11 06:06:07;;;;;;;;;;;;;;;2.16;93.75;101632.81;5359352;27;20034;-62
2022/04/11 06:08:39;;;;;;;22.55;13.77;;;;;;;2.31;93.41;101636.78;5353124;27;19918;-62
2022/04/11 06:11:10;;;;;;;17.73;13.52;;;;;;;2.40;93.33;101635.66;5352351;27;20023;-62
2022/04/11 06:13:43;;;;;;;20.83;14.60;;;;;;;2.53;93.32;101638.75;5356537;27;20146;-62
2022/04/11 06:16:14;;;;;;;19.80;13.80;;;;;;;2.60;92.93;101640.31;5354460;27;20115;-62
2022/04/11 06:18:46;;;;;;;16.02;12.95;;;;;;;2.72;92.83;101639.06;5357654;27;20034;-62
2022/04/11 06:21:17;;;;;;;19.88;13.23;;;;;;;2.80;92.74;101650.25;5346332;27;20385;-62
2022/04/11 06:23:48;;;;;;;18.02;12.82;;;;;;;2.89;92.40;101642.03;5341584;27;20075;-62
2022/04/11 06:26:20;;;;;;;16.33;12.32;;;;;;;3.03;91.46;101643.38;5351352;27;20022;-62
2022/04/11 06:28:51;;;;;;;16.08;11.85;;;;;;;3.17;89.93;101635.03;5349564;27;20380;-62
2022/04/11 06:31:22;;;;;;;20.63;12.23;;;;;;;3.21;89.53;101632.22;5345404;27;20022;-62
2022/04/11 06:33:53;;;;;;;17.05;11.90;;;;;;;3.32;89.41;101632.72;5347799;27;20018;-62
2022/04/11 06:36:24;;;;;;;16.90;11.52;;;;;;;3.39;88.60;101629.88;5350103;27;20046;-62
2022/04/11 06:38:56;;;;;;;14.80;11.90;;;;;;;3.51;89.09;101643.53;5346203;27;20440;-62
2022/04/11 06:41:27;;;;;;;16.60;10.85;;;;;;;3.61;87.52;101641.44;5345325;27;20060;-62
2022/04/11 06:43:58;;;;;;;19.33;11.88;;;;;;;3.70;87.75;101635.84;5356300;27;20532;-62
2022/04/11 06:46:29;;;;;;;18.30;11.70;;;;;;;3.76;87.82;101633.88;5352166;27;20031;-62
2022/04/11 06:49:01;;;;;;;15.95;10.48;;;;;;;3.90;88.04;101629.00;5353168;27;20077;-62
2022/04/11 06:51:32;;;;;;;14.43;10.38;;;;;;;4.00;86.85;101633.00;5348640;27;20178;-62
2022/04/11 06:54:04;;;;;;;17.20;10.57;;;;;;;4.18;86.10;101638.53;5346354;27;20050;-62
2022/04/11 06:56:35;;;;;;;15.05;10.18;;;;;;;4.28;86.11;101642.56;5349272;27;20038;-62
2022/04/11 06:59:06;;;;;;;17.15;9.52;;;;;;;4.34;84.73;101650.25;5348053;27;20046;-62
2022/04/11 07:01:38;;;;;;;12.20;9.43;;;;;;;4.42;86.76;101648.19;5317757;27;20161;-62
2022/04/11 07:04:09;;;;;;;12.07;9.75;;;;;;;4.51;85.84;101654.91;5323056;27;20564;-62
2022/04/11 07:06:40;;;;;;;14.43;8.93;;;;;;;4.63;84.45;101656.22;5322652;27;20023;-62
2022/04/11 07:09:12;;;;;;;12.55;9.05;;;;;;;4.70;84.43;101653.28;5327888;27;20061;-62
2022/04/11 07:11:43;;;;;;;13.32;8.88;;;;;;;4.79;83.08;101640.59;5334351;27;20031;-62
2022/04/11 07:14:14;;;;;;;12.95;9.00;;;;;;;5.02;82.29;101652.91;5339748;27;20053;-62
2022/04/11 07:16:45;;;;;;;11.15;8.00;;;;;;;5.18;79.90;101638.16;5338683;27;20046;-62
2022/04/11 07:19:17;;;;;;;9.75;7.88;;;;;;;5.26;81.37;101630.75;5341209;27;20373;-62
2022/04/11 07:21:48;;;;;;;14.38;8.00;;;;;;;5.45;79.88;101630.00;5341687;27;20087;-62
2022/04/11 07:24:19;;;;;;;11.82;8.23;;;;;;;5.58;79.15;101627.66;5340809;27;20042;-62
2022/04/11 07:26:51;;;;;;;13.48;7.72;;;;;;;5.61;80.66;101616.94;5337395;27;20030;-62
2022/04/11 07:29:22;;;;;;;11.50;7.15;;;;;;;5.73;78.65;101621.69;5334749;27;20414;-62
2022/04/11 07:31:53;;;;;;;12.05;7.47;;;;;;;5.89;77.27;101624.56;5336329;27;20216;-62
2022/04/11 07:34:24;;;;;;;10.48;7.05;;;;;;;5.98;77.79;101624.16;5342919;27;20045;-62
2022/04/11 07:36:56;;;;;;;12.95;7.35;;;;;;;6.15;77.10;101622.53;5342486;27;20034;-62
2022/04/11 07:39:29;;;;;;;8.38;6.18;;;;;;;6.34;75.12;101626.06;5343549;27;20430;-62
2022/04/11 07:42:00;;;;;;;11.55;7.13;;;;;;;6.50;75.28;101614.75;5320023;27;20758;-62
2022/04/11 07:44:32;;;;;;;11.20;6.68;;;;;;;6.65;73.83;101619.31;5339296;27;20507;-62
2022/04/11 07:47:03;;;;;;;10.95;5.90;;;;;;;6.72;73.38;101612.81;5339973;27;20123;-62
2022/04/11 07:49:34;;;;;;;11.52;5.95;;;;;;;6.93;73.60;101612.69;5336275;27;20026;-62
2022/04/11 07:52:06;;;;;;;10.93;5.90;;;;;;;7.07;71.35;101603.09;5349586;27;20035;-62
2022/04/11 07:54:38;;;;;;;10.75;5.93;;;;;;;7.21;73.34;101610.41;5348410;27;20487;-62
2022/04/11 07:57:09;;;;;;;11.40;6.43;;;;;;;7.36;70.58;101602.59;5351678;27;20105;-62
2022/04/11 07:59:40;;;;;;;12.13;6.03;;;;;;;7.46;70.88;101590.56;5350677;27;20057;-62
2022/04/11 08:02:12;;;;;;;8.63;5.57;;;;;;;7.68;69.21;101597.44;5349931;27;20030;-62
2022/04/11 08:04:43;;;;;;;9.80;5.25;;;;;;;7.85;68.54;101594.72;5350406;27;20030;-62
2022/04/11 08:07:15;;;;;;;10.05;4.82;;;;;;;8.03;67.65;101588.44;5355055;27;20527;-62
2022/04/11 08:09:48;;;;;;;9.45;5.88;;;;;;;8.20;66.58;101586.66;5349100;27;20022;-62
2022/04/11 08:12:19;;;;;;;8.00;5.07;;;;;;;8.21;67.79;101588.38;5353001;27;20038;-62
2022/04/11 08:14:51;;;;;;;10.38;5.10;;;;;;;8.32;65.90;101578.03;5344193;27;20047;-62
2022/04/11 08:17:23;;;;;;;10.57;5.22;;;;;;;8.44;67.58;101574.72;5347900;27;20046;-62
2022/04/11 08:19:54;;;;;;;8.95;4.82;;;;;;;8.55;66.23;101579.44;5350522;27;20031;-62
2022/04/11 08:22:25;;;;;;;9.48;4.88;;;;;;;8.75;64.39;101577.44;5351557;27;20074;-62
2022/04/11 08:24:56;;;;;;;10.18;4.88;;;;;;;8.90;64.89;101575.69;5353237;27;20358;-62
2022/04/11 08:27:28;;;;;;;8.80;4.75;;;;;;;9.02;61.45;101575.84;5353287;27;20443;-62
2022/04/11 08:29:59;;;;;;;8.00;4.97;;;;;;;9.23;61.88;101570.22;5349730;27;20446;-62
2022/04/11 08:32:45;;;;;;;7.32;4.63;;;;;;;9.30;63.75;101576.00;5349860;27;20138;-62
2022/04/11 08:35:21;;;;;;;9.82;4.90;;;;;;;9.44;62.00;101570.72;5350672;27;20035;-62
2022/04/11 08:37:52;;;;;;;10.00;4.57;;;;;;;9.59;60.77;101567.16;5350735;27;20093;-62
2022/04/11 08:40:24;;;;;;;9.55;4.95;;;;;;;9.67;59.46;101565.81;5351028;27;20039;-62
2022/04/11 08:42:55;;;;;;;9.23;4.88;;;;;;;9.76;58.39;101568.78;5349216;27;20441;-62
2022/04/11 08:45:28;;;;;;;7.75;4.53;;;;;;;9.84;57.90;101567.44;5349515;27;20111;-62
2022/04/11 08:47:59;;;;;;;7.00;4.35;;;;;;;9.99;58.60;101567.34;5348539;27;20027;-62
2022/04/11 08:50:30;;;;;;;7.68;4.30;;;;;;;10.05;57.59;101565.22;5345886;27;20388;-62
2022/04/11 08:53:02;;;;;;;6.85;4.00;;;;;;;10.14;59.33;101565.53;5348454;27;20023;-62
2022/04/11 08:55:34;;;;;;;8.23;3.58;;;;;;;10.25;56.78;101575.50;5351829;27;20039;-62
2022/04/11 08:58:05;;;;;;;8.98;3.50;;;;;;;10.43;55.36;101567.31;5349902;27;20037;-63
2022/04/11 09:00:36;;;;;;;8.18;3.65;;;;;;;10.51;56.79;101559.69;5347376;27;20026;-62
2022/04/11 09:03:08;;;;;;;6.18;3.47;;;;;;;10.40;56.30;101573.72;5347994;27;20038;-63
2022/04/11 09:05:39;;;;;;;7.65;2.83;;;;;;;10.56;55.34;101566.41;5344365;27;20131;-63
2022/04/11 09:08:11;;;;;;;8.43;2.85;;;;;;;10.76;54.50;101572.28;5350126;27;20379;-62
2022/04/11 09:10:42;;;;;;;8.48;2.90;;;;;;;10.88;55.58;101568.81;5348005;27;20492;-63
2022/04/11 09:13:13;;;;;;;7.43;3.15;;;;;;;10.84;55.15;101564.63;5352746;27;20115;-63
2022/04/11 09:15:48;;;;;;;5.28;2.70;;;;;;;10.97;54.33;101554.84;5349609;27;20030;-65
2022/04/11 09:18:19;;;;;;;9.05;3.10;;;;;;;10.93;55.89;101552.47;5349073;27;20380;-63
2022/04/11 09:20:50;;;;;;;5.95;2.90;;;;;;;11.11;53.18;101551.25;5351177;27;20023;-62
2022/04/11 09:23:23;;;;;;;5.85;2.90;;;;;;;11.09;53.06;101544.31;5350433;27;20114;-63
2022/04/11 09:25:54;;;;;;;7.72;2.92;;;;;;;11.26;54.00;101546.69;5350711;27;20022;-63
2022/04/11 09:28:26;;;;;;;3.88;2.42;;;;;;;11.37;50.64;101536.13;5349938;27;20082;-62
2022/04/11 09:31:05;;;;;;;9.63;2.85;;;;;;;11.48;50.21;101530.00;5352821;27;20027;-63
2022/04/11 09:33:38;;;;;;;7.05;2.50;;;;;;;11.65;49.10;101528.00;5350985;27;20051;-63
2022/04/11 09:36:10;;;;;;;5.63;2.38;;;;;;;11.71;48.62;101524.88;5353200;27;20030;-62
2022/04/11 09:38:41;;;;;;;5.53;2.58;;;;;;;11.73;50.52;101521.13;5353500;27;20030;-63
2022/04/11 09:41:12;;;;;;;8.73;3.15;;;;;;;11.80;50.77;101526.06;5352594;27;20892;-63
2022/04/11 09:43:43;;;;;;;6.22;2.88;;;;;;;11.96;47.73;101519.53;5354198;27;20026;-63
2022/04/11 09:46:15;;;;;;;6.82;2.53;;;;;;;12.14;46.75;101516.53;5354336;27;20026;-63
2022/04/11 09:48:46;;;;;;;5.82;3.28;;;;;;;12.16;47.89;101514.59;5352812;27;20085;-63
2022/04/11 09:51:17;;;;;;;5.65;2.55;;;;;;;12.29;47.09;101512.72;5353678;27;20028;-62
2022/04/11 09:53:49;;;;;;;5.95;2.03;;;;;;;12.32;46.07;101507.13;5352099;27;20114;-62
2022/04/11 09:56:22;;;;;;;4.70;2.60;;;;;;;12.44;44.81;101499.16;5350907;27;20030;-63
2022/04/11 09:58:54;;;;;;;5.27;2.60;;;;;;;12.52;46.78;101505.69;5350567;27;20038;-63
2022/04/11 10:01:26;;;;;;;9.45;2.38;;;;;;;12.49;46.46;101503.22;5351112;27;20291;-63
2022/04/11 10:03:57;;;;;;;7.07;2.20;;;;;;;12.59;44.50;101495.34;5352898;27;20071;-63
2022/04/11 10:06:29;;;;;;;5.13;2.50;;;;;;;12.58;43.84;101499.00;5350457;27;20027;-63
2022/04/11 10:09:02;;;;;;;8.60;2.50;;;;;;;12.70;43.90;101497.25;5355242;27;20023;-63
2022/04/11 10:11:34;;;;;;;6.65;3.03;;;;;;;12.80;44.36;101498.25;5353093;27;20071;-62
2022/04/11 10:14:06;;;;;;;8.55;2.92;;;;;;;12.83;44.27;101491.78;5352000;27;20043;-63
2022/04/11 10:16:42;;;;;;;4.97;2.58;;;;;;;12.93;44.42;101495.50;5353333;27;20122;-63
2022/04/11 10:19:13;;;;;;;5.93;2.63;;;;;;;13.04;44.37;101486.63;5352819;27;20033;-63
2022/04/11 10:21:47;;;;;;;7.97;2.90;;;;;;;12.99;45.06;101492.34;5353176;27;20026;-63
2022/04/11 10:24:49;;;;;;;7.05;3.10;;;;;;;13.13;46.68;101476.06;5350891;27;20381;-63
2022/04/11 10:27:23;;;;;;;6.32;3.10;;;;;;;13.13;43.23;101492.16;5352180;27;20034;-63
2022/04/11 10:29:56;;;;;;;8.55;3.35;;;;;;;13.21;44.45;101491.56;5350120;27;20094;-63
2022/04/11 10:32:29;;;;;;;6.00;3.10;;;;;;;13.18;43.00;101477.53;5353227;27;20030;-63
2022/04/11 10:35:05;;;;;;;6.07;3.28;;;;;;;13.28;42.45;101484.72;5348910;27;20019;-63
2022/04/11 10:37:39;;;;;;;6.00;2.90;;;;;;;13.33;44.75;101481.75;5352891;27;20070;-63
2022/04/11 10:40:16;;;;;;;5.60;2.90;;;;;;;13.40;42.74;101485.63;5354007;27;20023;-63
2022/04/11 10:43:12;;;;;;;6.60;3.08;;;;;;;13.46;42.28;101484.28;5353231;27;20023;-63
2022/04/11 10:45:55;;;;;;;6.60;3.00;;;;;;;13.42;41.43;101483.69;5351802;27;20493;-62
2022/04/11 10:49:05;;;;;;;5.93;2.70;;;;;;;13.49;44.04;101473.34;5354307;27;20031;-63
2022/04/11 10:51:37;;;;;;;6.00;2.80;;;;;;;13.53;40.87;101472.97;5351889;27;20090;-63
2022/04/11 10:54:17;;;;;;;9.85;3.53;;;;;;;13.59;41.91;101460.91;5353310;27;20027;-62
2022/04/11 10:56:53;;;;;;;5.03;2.70;;;;;;;13.64;42.31;101463.25;5328533;27;20045;-62
2022/04/11 10:59:29;;;;;;;7.53;3.42;;;;;;;13.70;42.94;101460.06;5353085;27;20022;-63
2022/04/11 11:02:00;;;;;;;8.02;3.28;;;;;;;13.75;41.80;101449.84;5352634;27;20479;-63
2022/04/11 11:04:33;;;;;;;7.25;2.92;;;;;;;13.69;41.70;101443.13;5351644;27;20111;-62
2022/04/11 11:07:28;;;;;;;8.02;3.33;;;;;;;13.82;43.71;101436.75;5350033;27;20457;-63
2022/04/11 11:10:00;;;;;;;5.70;3.20;;;;;;;13.80;41.87;101431.50;5353229;27;20086;-63
2022/04/11 11:12:31;;;;;;;8.52;2.80;;;;;;;13.81;43.49;101430.56;5350271;27;20480;-62
2022/04/11 11:15:25;;;;;;;9.13;3.03;;;;;;;13.83;42.70;101430.44;5350143;27;20043;-63
2022/04/11 11:17:59;;;;;;;6.50;3.13;;;;;;;13.87;41.99;101415.78;5345792;27;20667;-63
2022/04/11 11:20:32;;;;;;;8.75;3.42;;;;;;;13.92;41.39;101413.56;5351573;27;20034;-62
2022/04/11 11:23:19;;;;;;;5.97;2.78;;;;;;;13.98;42.01;101407.72;5333879;27;20102;-62
2022/04/11 11:25:52;;;;;;;6.60;3.42;;;;;;;14.03;40.82;101402.81;5349086;27;20034;-62
2022/04/11 11:28:28;;;;;;;7.55;3.40;;;;;;;14.05;42.22;101400.00;5333952;27;20027;-63
2022/04/11 11:31:00;;;;;;;8.88;3.33;;;;;;;14.11;40.87;101394.13;5350319;27;20079;-63
2022/04/11 11:33:31;;;;;;;7.30;2.95;;;;;;;14.14;41.43;101388.53;5351733;27;20026;-62
2022/04/11 11:36:03;;;;;;;5.28;2.85;;;;;;;14.22;40.42;101383.34;5349342;27;20023;-63
2022/04/11 11:38:34;;;;;;;6.13;3.13;;;;;;;14.14;41.18;101383.16;5349491;27;20027;-63
2022/04/11 11:41:05;;;;;;;6.32;2.83;;;;;;;14.27;39.51;101370.41;5350488;27;20477;-64
2022/04/11 11:43:37;;;;;;;4.80;2.67;;;;;;;14.28;39.90;101373.94;5349440;27;20038;-63
2022/04/11 11:46:08;;;;;;;10.27;2.97;;;;;;;14.34;38.27;101367.22;5347736;27;20029;-63